Time;durP1;ratioP1;P1;durP2;ratioP2;P2;SDS_P1;SDS_P2;PMS_P1;PMS_P2;Temp;Humidity;BMP_temperature;BMP_pressure;BME280_temperature;BME280_humidity;BME280_pressure;Samples;Min_cycle;Max_cycle;Signal;HPM_P1;HPM_P2
2023/11/24 00:02:06;;;;;;;0.10;0.10;;;;;;;;;;5017111;28;20405;-88
2023/11/24 00:04:33;;;;;;;0.10;0.10;;;;;;;;;;5000663;28;20041;-88
2023/11/24 00:06:59;;;;;;;0.10;0.10;;;;;;;;;;5033291;28;20041;-88
2023/11/24 00:09:29;;;;;;;0.10;0.10;;;;;;;;;;5016729;28;20404;-88
2023/11/24 00:11:55;;;;;;;0.10;0.10;;;;;;;;;;5016702;28;20038;-88
2023/11/24 00:14:21;;;;;;;0.20;0.20;;;;;;;;;;5000316;28;20045;-88
2023/11/24 00:16:47;;;;;;;1.25;0.35;;;;;;;;;;5016661;28;20065;-88
2023/11/24 00:19:16;;;;;;;0.10;0.10;;;;;;;;;;5016685;28;20053;-88
2023/11/24 00:21:42;;;;;;;0.10;0.10;;;;;;;;;;5033168;28;20128;-88
2023/11/24 00:24:08;;;;;;;0.15;0.15;;;;;;;;;;5016280;28;20124;-88
2023/11/24 00:26:34;;;;;;;0.22;0.22;;;;;;;;;;5000246;28;20073;-88
2023/11/24 00:29:00;;;;;;;0.10;0.10;;;;;;;;;;5016462;28;20124;-88
2023/11/24 00:31:26;;;;;;;0.10;0.10;;;;;;;;;;5016431;28;20033;-89
2023/11/24 00:33:56;;;;;;;0.15;0.15;;;;;;;;;;5016462;28;20370;-89
2023/11/24 00:36:22;;;;;;;0.20;0.20;;;;;;;;;;5016811;28;20041;-89
2023/11/24 00:38:49;;;;;;;0.10;0.10;;;;;;;;;;5016197;28;20049;-89
2023/11/24 00:41:16;;;;;;;0.10;0.10;;;;;;;;;;5000170;28;20038;-88
2023/11/24 00:43:42;;;;;;;5.15;0.35;;;;;;;;;;5016541;28;20041;-89
2023/11/24 00:46:12;;;;;;;0.47;0.47;;;;;;;;;;5000033;28;20042;-89
2023/11/24 00:48:38;;;;;;;0.10;0.10;;;;;;;;;;5016884;28;20048;-89
2023/11/24 00:51:05;;;;;;;0.10;0.10;;;;;;;;;;4999703;28;20037;-88
2023/11/24 00:53:31;;;;;;;0.30;0.30;;;;;;;;;;4999741;28;20041;-87
2023/11/24 00:55:57;;;;;;;0.20;0.20;;;;;;;;;;5015854;28;20047;-87
2023/11/24 00:58:23;;;;;;;0.10;0.10;;;;;;;;;;5032196;28;20120;-87
2023/11/24 01:00:49;;;;;;;0.10;0.10;;;;;;;;;;5032470;28;20048;-88
2023/11/24 01:03:15;;;;;;;0.10;0.10;;;;;;;;;;5015649;28;20480;-87
2023/11/24 01:05:42;;;;;;;0.10;0.10;;;;;;;;;;4999604;28;20048;-87
2023/11/24 01:08:08;;;;;;;0.22;0.15;;;;;;;;;;5015814;28;20071;-87
2023/11/24 01:10:35;;;;;;;0.10;0.10;;;;;;;;;;5015467;28;20393;-88
2023/11/24 01:13:00;;;;;;;0.10;0.10;;;;;;;;;;5015581;28;20088;-88
2023/11/24 01:15:27;;;;;;;0.30;0.30;;;;;;;;;;5015860;28;20038;-88
2023/11/24 01:17:54;;;;;;;0.10;0.10;;;;;;;;;;5015187;28;20258;-88
2023/11/24 01:20:21;;;;;;;0.10;0.10;;;;;;;;;;4999282;28;20057;-88
2023/11/24 01:22:48;;;;;;;0.20;0.20;;;;;;;;;;4999240;28;20052;-88
2023/11/24 01:25:15;;;;;;;0.10;0.10;;;;;;;;;;5015306;28;20132;-88
2023/11/24 01:27:41;;;;;;;0.10;0.10;;;;;;;;;;5031823;28;20068;-88
2023/11/24 01:30:10;;;;;;;0.10;0.10;;;;;;;;;;5015299;28;20496;-88
2023/11/24 01:32:36;;;;;;;1.35;1.13;;;;;;;;;;5015238;28;20038;-88
2023/11/24 01:35:02;;;;;;;0.10;0.10;;;;;;;;;;5015017;28;20179;-89
2023/11/24 01:37:28;;;;;;;0.10;0.10;;;;;;;;;;4998195;28;20045;-88
2023/11/24 01:39:54;;;;;;;0.30;0.25;;;;;;;;;;5015288;28;20045;-88
2023/11/24 01:42:20;;;;;;;0.10;0.10;;;;;;;;;;4998877;28;20055;-88
2023/11/24 01:44:47;;;;;;;0.10;0.10;;;;;;;;;;5031417;28;20484;-88
2023/11/24 01:47:13;;;;;;;0.55;0.55;;;;;;;;;;4999238;28;20115;-88
2023/11/24 01:49:39;;;;;;;0.10;0.10;;;;;;;;;;5014820;28;20038;-88
2023/11/24 01:52:06;;;;;;;0.85;0.45;;;;;;;;;;4998509;28;20042;-88
2023/11/24 01:54:36;;;;;;;0.10;0.10;;;;;;;;;;5015198;28;20508;-88
2023/11/24 01:57:02;;;;;;;0.50;0.50;;;;;;;;;;5015405;28;20055;-87
2023/11/24 01:59:28;;;;;;;0.40;0.40;;;;;;;;;;4998214;28;20476;-88
2023/11/24 02:01:54;;;;;;;0.10;0.10;;;;;;;;;;5014955;28;20098;-87
2023/11/24 02:04:22;;;;;;;0.20;0.20;;;;;;;;;;5014842;28;20098;-88
2023/11/24 02:06:48;;;;;;;0.10;0.10;;;;;;;;;;4998593;28;20040;-88
2023/11/24 02:09:14;;;;;;;0.10;0.10;;;;;;;;;;5014761;28;20045;-88
2023/11/24 02:11:40;;;;;;;0.10;0.10;;;;;;;;;;5014459;28;20492;-88
2023/11/24 02:14:06;;;;;;;0.30;0.30;;;;;;;;;;5031054;28;20132;-89
2023/11/24 02:16:33;;;;;;;0.10;0.10;;;;;;;;;;5014425;28;20041;-89
2023/11/24 02:18:59;;;;;;;0.10;0.10;;;;;;;;;;4998507;28;20136;-89
2023/11/24 02:21:25;;;;;;;0.10;0.10;;;;;;;;;;4998047;28;20070;-89
2023/11/24 02:23:51;;;;;;;0.10;0.10;;;;;;;;;;5030872;28;20405;-89
2023/11/24 02:26:17;;;;;;;0.10;0.10;;;;;;;;;;5014741;28;20047;-89
2023/11/24 02:28:43;;;;;;;0.10;0.10;;;;;;;;;;4998485;28;20073;-90
2023/11/24 02:31:11;;;;;;;0.15;0.15;;;;;;;;;;5014564;28;20539;-89
2023/11/24 02:33:40;;;;;;;0.10;0.10;;;;;;;;;;5014864;28;20111;-90
2023/11/24 02:36:08;;;;;;;0.10;0.10;;;;;;;;;;4998464;28;20045;-89
2023/11/24 02:38:34;;;;;;;0.10;0.10;;;;;;;;;;4998525;28;20098;-89
2023/11/24 02:41:00;;;;;;;0.10;0.10;;;;;;;;;;4998017;28;20511;-89
2023/11/24 02:43:27;;;;;;;0.10;0.10;;;;;;;;;;4998178;28;20048;-90
2023/11/24 02:45:53;;;;;;;0.10;0.10;;;;;;;;;;5014164;28;20127;-89
2023/11/24 02:48:19;;;;;;;0.10;0.10;;;;;;;;;;5001175;28;20136;-89
2023/11/24 02:50:45;;;;;;;0.10;0.10;;;;;;;;;;5018298;28;20034;-89
2023/11/24 02:53:11;;;;;;;0.10;0.10;;;;;;;;;;5018294;28;20070;-89
2023/11/24 02:55:37;;;;;;;0.10;0.10;;;;;;;;;;5018479;28;20053;-89
2023/11/24 02:58:04;;;;;;;0.75;0.75;;;;;;;;;;5018340;28;20473;-89
2023/11/24 03:00:30;;;;;;;0.10;0.10;;;;;;;;;;5001825;28;20049;-89
2023/11/24 03:02:56;;;;;;;0.10;0.10;;;;;;;;;;5034291;28;20049;-89
2023/11/24 03:05:22;;;;;;;0.10;0.10;;;;;;;;;;5018037;28;20148;-89
2023/11/24 03:07:48;;;;;;;0.20;0.20;;;;;;;;;;5001617;28;20512;-89
2023/11/24 03:10:14;;;;;;;0.10;0.10;;;;;;;;;;5017989;28;20042;-89
2023/11/24 03:12:42;;;;;;;0.22;0.22;;;;;;;;;;5017747;28;20128;-89
2023/11/24 03:15:11;;;;;;;0.10;0.10;;;;;;;;;;5018251;28;20086;-89
2023/11/24 03:17:36;;;;;;;0.10;0.10;;;;;;;;;;5018058;28;20097;-89
2023/11/24 03:20:03;;;;;;;0.10;0.10;;;;;;;;;;5017762;28;20504;-89
2023/11/24 03:22:29;;;;;;;0.10;0.10;;;;;;;;;;5001576;28;20037;-89
2023/11/24 03:24:55;;;;;;;0.10;0.10;;;;;;;;;;5017660;28;20065;-89
2023/11/24 03:27:21;;;;;;;0.10;0.10;;;;;;;;;;5017690;28;20080;-89
2023/11/24 03:29:47;;;;;;;0.10;0.10;;;;;;;;;;5017739;28;20549;-89
2023/11/24 03:32:12;;;;;;;0.10;0.10;;;;;;;;;;5001279;28;20037;-89
2023/11/24 03:34:40;;;;;;;0.10;0.10;;;;;;;;;;5001495;28;20045;-88
2023/11/24 03:37:06;;;;;;;0.10;0.10;;;;;;;;;;5017838;28;20056;-89
2023/11/24 03:39:32;;;;;;;0.10;0.10;;;;;;;;;;5033770;28;20041;-89
2023/11/24 03:41:58;;;;;;;0.10;0.10;;;;;;;;;;5034102;28;20056;-89
2023/11/24 03:44:24;;;;;;;0.10;0.10;;;;;;;;;;5017407;28;20473;-88
2023/11/24 03:46:50;;;;;;;0.10;0.10;;;;;;;;;;5001268;28;20141;-89
2023/11/24 03:49:16;;;;;;;0.10;0.10;;;;;;;;;;5001355;28;20037;-89
2023/11/24 03:51:42;;;;;;;0.10;0.10;;;;;;;;;;5017527;28;20041;-90
2023/11/24 03:54:08;;;;;;;0.10;0.10;;;;;;;;;;5001084;28;20049;-89
2023/11/24 03:56:34;;;;;;;0.20;0.20;;;;;;;;;;5017138;28;20041;-88
2023/11/24 03:59:00;;;;;;;1.35;0.30;;;;;;;;;;5016481;28;20053;-89
2023/11/24 04:01:27;;;;;;;0.20;0.20;;;;;;;;;;5016833;28;20420;-89
2023/11/24 04:03:55;;;;;;;0.10;0.10;;;;;;;;;;5017107;28;20443;-89
2023/11/24 04:06:21;;;;;;;0.10;0.10;;;;;;;;;;5017368;28;20041;-89
2023/11/24 04:08:47;;;;;;;0.10;0.10;;;;;;;;;;5016912;28;20069;-89
2023/11/24 04:11:13;;;;;;;0.10;0.10;;;;;;;;;;5016779;28;20080;-88
2023/11/24 04:13:39;;;;;;;0.10;0.10;;;;;;;;;;5000794;28;20033;-88
2023/11/24 04:16:07;;;;;;;0.10;0.10;;;;;;;;;;5016625;28;20077;-88
2023/11/24 04:18:32;;;;;;;0.10;0.10;;;;;;;;;;5016749;28;20076;-90
2023/11/24 04:20:58;;;;;;;0.10;0.10;;;;;;;;;;5000771;28;20504;-89
2023/11/24 04:23:25;;;;;;;0.10;0.10;;;;;;;;;;5016685;28;20164;-89
2023/11/24 04:25:51;;;;;;;0.10;0.10;;;;;;;;;;5000551;28;20060;-89
2023/11/24 04:28:17;;;;;;;0.80;0.30;;;;;;;;;;5000384;28;20033;-90
2023/11/24 04:30:43;;;;;;;0.10;0.10;;;;;;;;;;5016685;28;20041;-89
2023/11/24 04:33:09;;;;;;;0.10;0.10;;;;;;;;;;5000516;28;20038;-89
2023/11/24 04:35:35;;;;;;;0.57;0.57;;;;;;;;;;5016522;28;20053;-89
2023/11/24 04:38:01;;;;;;;0.10;0.10;;;;;;;;;;5016379;28;20120;-89
2023/11/24 04:40:27;;;;;;;0.10;0.10;;;;;;;;;;5000065;28;20103;-89
2023/11/24 04:42:53;;;;;;;0.10;0.10;;;;;;;;;;5016866;28;20045;-89
2023/11/24 04:45:19;;;;;;;0.10;0.10;;;;;;;;;;4999865;28;20488;-88
2023/11/24 04:47:45;;;;;;;0.10;0.10;;;;;;;;;;4999863;28;20037;-88
2023/11/24 04:50:11;;;;;;;0.10;0.10;;;;;;;;;;5016304;28;20457;-88
2023/11/24 04:52:37;;;;;;;0.10;0.10;;;;;;;;;;4999813;28;20072;-88
2023/11/24 04:55:06;;;;;;;0.10;0.10;;;;;;;;;;5016331;28;20432;-88
2023/11/24 04:57:33;;;;;;;0.10;0.10;;;;;;;;;;5016508;28;20042;-87
2023/11/24 05:00:00;;;;;;;0.10;0.10;;;;;;;;;;5016193;28;20103;-87
2023/11/24 05:02:25;;;;;;;0.10;0.10;;;;;;;;;;5016144;28;20041;-87
2023/11/24 05:04:52;;;;;;;0.88;0.22;;;;;;;;;;5016131;28;20044;-88
2023/11/24 05:07:19;;;;;;;0.10;0.10;;;;;;;;;;5015846;28;20052;-87
2023/11/24 05:09:45;;;;;;;0.10;0.10;;;;;;;;;;5015676;28;20052;-87
2023/11/24 05:12:11;;;;;;;0.10;0.10;;;;;;;;;;5014767;28;20476;-87
2023/11/24 05:14:39;;;;;;;0.10;0.10;;;;;;;;;;5015644;28;20073;-87
2023/11/24 05:17:05;;;;;;;0.10;0.10;;;;;;;;;;4999630;28;20064;-93
2023/11/24 05:19:31;;;;;;;0.10;0.10;;;;;;;;;;4999566;28;20195;-87
2023/11/24 05:21:57;;;;;;;0.10;0.10;;;;;;;;;;5015702;28;20095;-88
2023/11/24 05:24:23;;;;;;;0.10;0.10;;;;;;;;;;4999331;28;20139;-88
2023/11/24 05:26:49;;;;;;;0.10;0.10;;;;;;;;;;5031803;28;20497;-87
2023/11/24 05:29:15;;;;;;;0.10;0.10;;;;;;;;;;4999094;28;20183;-88
2023/11/24 05:31:41;;;;;;;0.10;0.10;;;;;;;;;;5015452;28;20112;-87
2023/11/24 05:34:07;;;;;;;0.10;0.10;;;;;;;;;;5015426;28;20042;-87
2023/11/24 05:36:33;;;;;;;0.22;0.22;;;;;;;;;;5015360;28;20034;-88
2023/11/24 05:38:59;;;;;;;0.10;0.10;;;;;;;;;;4998931;28;20044;-88
2023/11/24 05:41:28;;;;;;;0.10;0.10;;;;;;;;;;5031619;28;20045;-88
2023/11/24 05:43:54;;;;;;;0.10;0.10;;;;;;;;;;5015835;28;20041;-87
2023/11/24 05:46:20;;;;;;;0.10;0.10;;;;;;;;;;5031613;28;20052;-88
2023/11/24 05:48:47;;;;;;;0.10;0.10;;;;;;;;;;5015199;28;20037;-88
2023/11/24 05:51:13;;;;;;;0.10;0.10;;;;;;;;;;5014880;28;20044;-87
2023/11/24 05:53:40;;;;;;;0.10;0.10;;;;;;;;;;4998585;28;20500;-88
2023/11/24 05:56:06;;;;;;;0.10;0.10;;;;;;;;;;5015063;28;20081;-87
2023/11/24 05:58:32;;;;;;;0.10;0.10;;;;;;;;;;5031198;28;20041;-88
2023/11/24 06:00:58;;;;;;;0.10;0.10;;;;;;;;;;5014880;28;20135;-88
2023/11/24 06:03:24;;;;;;;0.10;0.10;;;;;;;;;;5014962;28;20041;-87
2023/11/24 06:05:50;;;;;;;0.10;0.10;;;;;;;;;;4998356;28;20048;-86
2023/11/24 06:08:17;;;;;;;0.10;0.10;;;;;;;;;;5014780;28;20388;-87
2023/11/24 06:10:43;;;;;;;0.10;0.10;;;;;;;;;;5031036;28;20137;-88
2023/11/24 06:13:09;;;;;;;0.10;0.10;;;;;;;;;;5014754;28;20052;-87
2023/11/24 06:15:35;;;;;;;0.10;0.10;;;;;;;;;;4998314;28;20493;-86
2023/11/24 06:18:01;;;;;;;0.10;0.10;;;;;;;;;;5030844;28;20053;-87
2023/11/24 06:20:27;;;;;;;0.10;0.10;;;;;;;;;;5015063;28;20045;-88
2023/11/24 06:22:53;;;;;;;0.10;0.10;;;;;;;;;;4997770;28;20083;-87
2023/11/24 06:25:19;;;;;;;0.10;0.10;;;;;;;;;;5014486;28;20052;-89
2023/11/24 06:27:45;;;;;;;0.10;0.10;;;;;;;;;;5014539;28;20396;-87
2023/11/24 06:30:11;;;;;;;0.30;0.30;;;;;;;;;;5014412;28;20120;-87
2023/11/24 06:32:37;;;;;;;0.10;0.10;;;;;;;;;;5014567;28;20067;-87
2023/11/24 06:35:06;;;;;;;0.25;0.25;;;;;;;;;;5014700;28;20412;-88
2023/11/24 06:37:33;;;;;;;0.10;0.10;;;;;;;;;;5014510;28;20041;-88
2023/11/24 06:39:59;;;;;;;0.25;0.25;;;;;;;;;;5014572;28;20114;-87
2023/11/24 06:42:27;;;;;;;0.10;0.10;;;;;;;;;;5014754;28;20042;-87
2023/11/24 06:44:53;;;;;;;0.10;0.10;;;;;;;;;;5014430;28;20049;-87
2023/11/24 06:47:23;;;;;;;0.10;0.10;;;;;;;;;;5014378;28;20072;-87
2023/11/24 06:49:49;;;;;;;0.20;0.20;;;;;;;;;;4998503;28;20041;-87
2023/11/24 06:52:15;;;;;;;0.10;0.10;;;;;;;;;;4997959;28;20041;-87
2023/11/24 06:54:41;;;;;;;0.10;0.10;;;;;;;;;;5030591;28;20492;-86
2023/11/24 06:57:07;;;;;;;0.10;0.10;;;;;;;;;;5014255;28;20124;-87
2023/11/24 06:59:33;;;;;;;0.10;0.10;;;;;;;;;;5014176;28;20042;-86
2023/11/24 07:01:59;;;;;;;0.10;0.10;;;;;;;;;;5014329;28;20033;-87
2023/11/24 07:04:25;;;;;;;0.10;0.10;;;;;;;;;;5014073;28;20485;-87
2023/11/24 07:06:51;;;;;;;0.10;0.10;;;;;;;;;;5014095;28;20079;-86
2023/11/24 07:09:17;;;;;;;0.13;0.13;;;;;;;;;;5030337;28;20043;-85
2023/11/24 07:11:43;;;;;;;0.10;0.10;;;;;;;;;;5030558;28;20124;-85
2023/11/24 07:14:09;;;;;;;0.10;0.10;;;;;;;;;;4998101;28;20096;-86
2023/11/24 07:16:36;;;;;;;0.10;0.10;;;;;;;;;;5030155;28;20041;-85
2023/11/24 07:19:02;;;;;;;0.10;0.10;;;;;;;;;;5014310;28;20258;-86
2023/11/24 07:21:28;;;;;;;0.10;0.10;;;;;;;;;;4997960;28;20047;-85
2023/11/24 07:23:54;;;;;;;0.10;0.10;;;;;;;;;;5014163;28;20077;-86
2023/11/24 07:26:21;;;;;;;0.10;0.10;;;;;;;;;;4997536;28;20041;-86
2023/11/24 07:28:47;;;;;;;0.10;0.10;;;;;;;;;;5013837;28;20037;-86
2023/11/24 07:31:20;;;;;;;0.10;0.10;;;;;;;;;;4997538;28;20041;-86
2023/11/24 07:33:48;;;;;;;0.10;0.10;;;;;;;;;;4998707;28;20094;-85
2023/11/24 07:36:19;;;;;;;0.10;0.10;;;;;;;;;;5017870;28;20045;-86
2023/11/24 07:38:45;;;;;;;0.10;0.10;;;;;;;;;;5017608;28;20100;-86
2023/11/24 07:41:11;;;;;;;0.10;0.10;;;;;;;;;;5001085;28;20099;-86
2023/11/24 07:43:37;;;;;;;0.10;0.10;;;;;;;;;;5017532;28;20380;-87
2023/11/24 07:46:07;;;;;;;0.10;0.10;;;;;;;;;;5001002;28;20037;-87
2023/11/24 07:48:34;;;;;;;0.10;0.10;;;;;;;;;;5017827;28;20045;-87
2023/11/24 07:51:01;;;;;;;0.10;0.10;;;;;;;;;;5000823;28;20127;-87
2023/11/24 07:53:27;;;;;;;0.10;0.10;;;;;;;;;;5033520;28;20045;-86
2023/11/24 07:55:53;;;;;;;0.10;0.10;;;;;;;;;;5017097;28;20345;-88
2023/11/24 07:58:19;;;;;;;0.10;0.10;;;;;;;;;;5017083;28;20041;-86
2023/11/24 08:00:45;;;;;;;0.10;0.10;;;;;;;;;;5016922;28;20052;-86
2023/11/24 08:03:12;;;;;;;0.10;0.10;;;;;;;;;;5016880;28;20045;-86
2023/11/24 08:05:39;;;;;;;0.10;0.10;;;;;;;;;;5016914;28;20045;-85
2023/11/24 08:08:05;;;;;;;0.10;0.10;;;;;;;;;;5017020;28;20458;-85
2023/11/24 08:10:31;;;;;;;0.10;0.10;;;;;;;;;;5033096;28;20080;-86
2023/11/24 08:12:57;;;;;;;0.10;0.10;;;;;;;;;;5016772;28;20123;-85
2023/11/24 08:15:23;;;;;;;0.10;0.10;;;;;;;;;;5033072;28;20489;-85
2023/11/24 08:17:50;;;;;;;0.10;0.10;;;;;;;;;;5016339;28;20061;-85
2023/11/24 08:20:16;;;;;;;0.10;0.10;;;;;;;;;;5032949;28;20045;-86
2023/11/24 08:22:42;;;;;;;0.10;0.10;;;;;;;;;;5000295;28;20056;-85
2023/11/24 08:25:09;;;;;;;0.10;0.10;;;;;;;;;;5016520;28;20116;-87
2023/11/24 08:27:35;;;;;;;0.10;0.10;;;;;;;;;;5016751;28;20041;-86
2023/11/24 08:30:05;;;;;;;0.10;0.10;;;;;;;;;;5032747;28;20041;-86
2023/11/24 08:32:31;;;;;;;0.10;0.10;;;;;;;;;;5016321;28;20041;-86
2023/11/24 08:34:57;;;;;;;0.10;0.10;;;;;;;;;;5032895;28;20497;-86
2023/11/24 08:37:23;;;;;;;0.10;0.10;;;;;;;;;;5016170;28;20124;-85
2023/11/24 08:39:49;;;;;;;0.70;0.47;;;;;;;;;;5013903;28;20121;-87
2023/11/24 08:42:15;;;;;;;0.10;0.10;;;;;;;;;;5032637;28;20043;-85
2023/11/24 08:44:41;;;;;;;0.10;0.10;;;;;;;;;;5015663;28;20144;-85
2023/11/24 08:47:07;;;;;;;0.10;0.10;;;;;;;;;;5032433;28;20528;-86
2023/11/24 08:49:33;;;;;;;0.10;0.10;;;;;;;;;;5016242;28;20041;-86
2023/11/24 08:51:59;;;;;;;0.10;0.10;;;;;;;;;;5016114;28;20042;-87
2023/11/24 08:54:25;;;;;;;0.10;0.10;;;;;;;;;;5016158;28;20041;-87
2023/11/24 08:56:51;;;;;;;0.10;0.10;;;;;;;;;;5032562;28;20132;-86
2023/11/24 08:59:18;;;;;;;0.10;0.10;;;;;;;;;;4999321;28;20496;-85
2023/11/24 09:01:45;;;;;;;0.10;0.10;;;;;;;;;;5015904;28;20045;-86
2023/11/24 09:04:13;;;;;;;1.33;0.20;;;;;;;;;;4999409;28;20087;-85
2023/11/24 09:06:38;;;;;;;0.10;0.10;;;;;;;;;;5032195;28;20037;-86
2023/11/24 09:09:12;;;;;;;0.10;0.10;;;;;;;;;;5031907;28;20041;-85
2023/11/24 09:11:38;;;;;;;0.10;0.10;;;;;;;;;;5031873;28;20042;-86
2023/11/24 09:14:04;;;;;;;0.10;0.10;;;;;;;;;;5015660;28;20042;-85
2023/11/24 09:16:30;;;;;;;0.10;0.10;;;;;;;;;;4998969;28;20041;-86
2023/11/24 09:18:59;;;;;;;0.10;0.10;;;;;;;;;;5015477;28;20049;-86
2023/11/24 09:21:26;;;;;;;0.10;0.10;;;;;;;;;;5015573;28;20124;-85
2023/11/24 09:23:53;;;;;;;0.10;0.10;;;;;;;;;;4999106;28;20378;-86
2023/11/24 09:26:18;;;;;;;0.10;0.10;;;;;;;;;;5015230;28;20041;-85
2023/11/24 09:28:44;;;;;;;0.10;0.10;;;;;;;;;;5015245;28;20129;-86
2023/11/24 09:31:12;;;;;;;0.30;0.30;;;;;;;;;;4998949;28;20103;-87
2023/11/24 09:33:38;;;;;;;0.10;0.10;;;;;;;;;;5015595;28;20037;-84
2023/11/24 09:36:05;;;;;;;0.10;0.10;;;;;;;;;;5015193;28;20068;-84
2023/11/24 09:38:32;;;;;;;3.30;0.55;;;;;;;;;;5015144;28;20051;-85
2023/11/24 09:41:00;;;;;;;0.45;0.45;;;;;;;;;;5014948;28;20049;-85
2023/11/24 09:43:26;;;;;;;0.10;0.10;;;;;;;;;;5015218;28;20081;-85
2023/11/24 09:45:52;;;;;;;0.10;0.10;;;;;;;;;;5014966;28;20477;-86
2023/11/24 09:48:18;;;;;;;0.10;0.10;;;;;;;;;;5031404;28;20041;-86
2023/11/24 09:50:45;;;;;;;0.10;0.10;;;;;;;;;;5031372;28;20053;-86
2023/11/24 09:53:12;;;;;;;0.10;0.10;;;;;;;;;;5015239;28;20103;-86
2023/11/24 09:55:41;;;;;;;0.10;0.10;;;;;;;;;;5031373;28;20041;-86
2023/11/24 09:58:07;;;;;;;0.10;0.10;;;;;;;;;;4998606;28;20045;-86
2023/11/24 10:00:33;;;;;;;0.10;0.10;;;;;;;;;;5015322;28;20374;-87
2023/11/24 10:03:00;;;;;;;0.20;0.20;;;;;;;;;;5031123;28;20045;-87
2023/11/24 10:05:26;;;;;;;0.10;0.10;;;;;;;;;;5014481;28;20430;-87
2023/11/24 10:07:52;;;;;;;0.22;0.22;;;;;;;;;;5014475;28;20191;-87
2023/11/24 10:10:25;;;;;;;0.28;0.28;;;;;;;;;;4997965;28;20336;-86
2023/11/24 10:12:59;;;;;;;0.20;0.20;;;;;;;;;;5015221;28;20551;-85
2023/11/24 10:15:25;;;;;;;0.10;0.10;;;;;;;;;;5014960;28;20045;-87
2023/11/24 10:17:51;;;;;;;0.55;0.55;;;;;;;;;;5011755;28;20061;-89
2023/11/24 10:20:22;;;;;;;0.10;0.10;;;;;;;;;;5014570;28;20125;-88
2023/11/24 10:22:49;;;;;;;7.82;0.57;;;;;;;;;;5014371;28;20060;-88
2023/11/24 10:25:18;;;;;;;2.47;0.95;;;;;;;;;;5014495;28;20056;-88
2023/11/24 10:27:44;;;;;;;0.10;0.10;;;;;;;;;;5014170;28;20034;-87
2023/11/24 10:30:11;;;;;;;0.20;0.20;;;;;;;;;;4998134;28;20370;-88
2023/11/24 10:32:37;;;;;;;6.53;0.32;;;;;;;;;;5013882;28;20034;-88
2023/11/24 10:35:06;;;;;;;0.20;0.20;;;;;;;;;;5014240;28;20107;-88
2023/11/24 10:37:32;;;;;;;0.10;0.10;;;;;;;;;;5015416;28;20420;-93
2023/11/24 10:40:00;;;;;;;0.17;0.17;;;;;;;;;;4999099;28;20049;-95
2023/11/24 10:42:26;;;;;;;0.10;0.10;;;;;;;;;;4995930;28;20053;-87
2023/11/24 10:44:55;;;;;;;0.10;0.10;;;;;;;;;;5014203;28;20392;-88
2023/11/24 10:47:25;;;;;;;1.30;1.27;;;;;;;;;;5014012;28;20077;-87
2023/11/24 10:49:58;;;;;;;0.10;0.10;;;;;;;;;;5014351;28;20033;-87
2023/11/24 10:52:24;;;;;;;;;;;;;;;;;;5014630;28;20037;-87
2023/11/24 10:54:58;;;;;;;0.10;0.10;;;;;;;;;;5030881;28;19997;-87
2023/11/24 10:57:25;;;;;;;0.17;0.17;;;;;;;;;;5014152;28;20546;-87
2023/11/24 10:59:51;;;;;;;0.60;0.32;;;;;;;;;;5014203;28;20124;-87
2023/11/24 11:02:17;;;;;;;0.10;0.10;;;;;;;;;;5013876;28;20089;-87
2023/11/24 11:04:55;;;;;;;0.25;0.25;;;;;;;;;;5014165;28;20029;-88
2023/11/24 11:07:27;;;;;;;0.10;0.10;;;;;;;;;;5014694;28;20052;-87
2023/11/24 11:09:58;;;;;;;0.10;0.10;;;;;;;;;;5017303;28;20045;-87
2023/11/24 11:12:30;;;;;;;0.10;0.10;;;;;;;;;;5034518;28;20397;-88
2023/11/24 11:14:57;;;;;;;0.10;0.10;;;;;;;;;;5034236;28;20045;-86
2023/11/24 11:17:25;;;;;;;0.45;0.45;;;;;;;;;;5017552;28;20404;-87
2023/11/24 11:20:06;;;;;;;0.10;0.10;;;;;;;;;;5017514;28;20115;-88
2023/11/24 11:22:37;;;;;;;0.10;0.10;;;;;;;;;;5018501;28;20088;-88
2023/11/24 11:25:19;;;;;;;0.20;0.20;;;;;;;;;;4999938;28;20045;-86
2023/11/24 11:27:46;;;;;;;0.10;0.10;;;;;;;;;;5033773;28;20037;-86
2023/11/24 11:30:18;;;;;;;0.10;0.10;;;;;;;;;;5033634;28;20123;-87
2023/11/24 11:32:45;;;;;;;0.20;0.20;;;;;;;;;;5015285;28;20116;-87
2023/11/24 11:35:11;;;;;;;0.20;0.20;;;;;;;;;;5017761;28;20053;-87
2023/11/24 11:37:37;;;;;;;0.10;0.10;;;;;;;;;;5017315;28;20052;-87
2023/11/24 11:40:14;;;;;;;0.10;0.10;;;;;;;;;;5017629;28;20135;-87
2023/11/24 11:42:53;;;;;;;0.10;0.10;;;;;;;;;;5001380;28;20127;-87
2023/11/24 11:45:24;;;;;;;0.10;0.10;;;;;;;;;;5033198;28;20041;-88
2023/11/24 11:47:50;;;;;;;0.10;0.10;;;;;;;;;;5016952;28;20048;-87
2023/11/24 11:50:20;;;;;;;0.10;0.10;;;;;;;;;;5031615;28;20045;-87
2023/11/24 11:52:46;;;;;;;0.10;0.10;;;;;;;;;;5033276;28;20038;-87
2023/11/24 11:55:12;;;;;;;0.20;0.20;;;;;;;;;;5016879;28;20099;-88
2023/11/24 11:57:38;;;;;;;0.20;0.20;;;;;;;;;;5017091;28;20049;-88
2023/11/24 12:00:08;;;;;;;0.10;0.10;;;;;;;;;;5016577;28;20381;-88
2023/11/24 12:02:34;;;;;;;0.10;0.10;;;;;;;;;;5000573;28;20073;-87
2023/11/24 12:05:00;;;;;;;0.20;0.20;;;;;;;;;;5032994;28;20083;-88
2023/11/24 12:07:35;;;;;;;0.10;0.10;;;;;;;;;;5034769;28;20033;-96
2023/11/24 12:10:03;;;;;;;0.20;0.20;;;;;;;;;;5016960;28;20436;-88
2023/11/24 12:12:30;;;;;;;0.10;0.10;;;;;;;;;;5000427;28;20077;-88
2023/11/24 12:14:56;;;;;;;0.10;0.10;;;;;;;;;;5032799;28;20084;-87
2023/11/24 12:17:23;;;;;;;0.10;0.10;;;;;;;;;;4999667;28;20067;-86
2023/11/24 12:19:50;;;;;;;0.10;0.10;;;;;;;;;;5016126;28;20049;-88
2023/11/24 12:22:18;;;;;;;0.10;0.10;;;;;;;;;;4999991;28;20106;-88
2023/11/24 12:24:44;;;;;;;0.52;0.52;;;;;;;;;;5000249;28;20045;-88
2023/11/24 12:27:11;;;;;;;0.10;0.10;;;;;;;;;;5016203;28;20060;-88
2023/11/24 12:29:38;;;;;;;0.10;0.10;;;;;;;;;;5016532;28;20050;-88
2023/11/24 12:32:04;;;;;;;0.10;0.10;;;;;;;;;;5016170;28;20472;-87
2023/11/24 12:34:30;;;;;;;0.10;0.10;;;;;;;;;;5032532;28;20049;-88
2023/11/24 12:36:58;;;;;;;0.10;0.10;;;;;;;;;;5015978;28;20544;-88
2023/11/24 12:39:34;;;;;;;0.10;0.10;;;;;;;;;;5015859;28;20053;-88
2023/11/24 12:42:00;;;;;;;0.10;0.10;;;;;;;;;;5000706;28;20037;-88
2023/11/24 12:44:36;;;;;;;2.83;1.05;;;;;;;;;;5016312;28;20052;-88
2023/11/24 12:47:14;;;;;;;0.10;0.10;;;;;;;;;;5016428;28;20046;-88
2023/11/24 12:50:06;;;;;;;1.00;1.00;;;;;;;;;;5016342;28;20043;-88
2023/11/24 12:52:32;;;;;;;0.10;0.10;;;;;;;;;;5015745;28;20183;-88
2023/11/24 12:54:58;;;;;;;0.10;0.10;;;;;;;;;;5015771;28;20493;-87
2023/11/24 12:57:25;;;;;;;1.23;0.75;;;;;;;;;;5015663;28;20042;-87
2023/11/24 12:59:51;;;;;;;0.10;0.10;;;;;;;;;;4999425;28;20087;-87
2023/11/24 13:02:19;;;;;;;0.20;0.20;;;;;;;;;;4999198;28;20503;-89
2023/11/24 13:04:46;;;;;;;1.00;0.32;;;;;;;;;;5032345;28;20423;-88
2023/11/24 13:07:13;;;;;;;0.45;0.15;;;;;;;;;;5000427;28;20037;-88
2023/11/24 13:09:39;;;;;;;0.20;0.20;;;;;;;;;;5015803;28;20068;-88
2023/11/24 13:12:06;;;;;;;0.10;0.10;;;;;;;;;;5015534;28;20536;-88
2023/11/24 13:14:34;;;;;;;0.10;0.10;;;;;;;;;;4999234;28;20124;-88
2023/11/24 13:17:00;;;;;;;0.10;0.10;;;;;;;;;;5015646;28;20448;-90
2023/11/24 13:19:28;;;;;;;0.10;0.10;;;;;;;;;;5015489;28;20049;-89
2023/11/24 13:21:56;;;;;;;0.10;0.10;;;;;;;;;;4999129;28;20045;-88
2023/11/24 13:24:23;;;;;;;0.10;0.10;;;;;;;;;;4999227;28;20060;-88
2023/11/24 13:26:51;;;;;;;0.10;0.10;;;;;;;;;;5015866;28;20076;-89
2023/11/24 13:29:18;;;;;;;0.52;0.52;;;;;;;;;;4999589;28;20095;-89
2023/11/24 13:31:46;;;;;;;0.20;0.20;;;;;;;;;;5014898;28;20069;-90
2023/11/24 13:34:14;;;;;;;0.10;0.10;;;;;;;;;;5015767;28;20477;-90
2023/11/24 13:36:45;;;;;;;0.10;0.10;;;;;;;;;;4999191;28;20515;-88
2023/11/24 13:39:22;;;;;;;0.10;0.10;;;;;;;;;;4999270;28;20037;-87
2023/11/24 13:41:48;;;;;;;0.10;0.10;;;;;;;;;;5015219;28;20033;-89
2023/11/24 13:44:14;;;;;;;0.15;0.15;;;;;;;;;;5018012;28;20369;-92
2023/11/24 13:46:40;;;;;;;0.10;0.10;;;;;;;;;;4998637;28;20096;-90
2023/11/24 13:49:16;;;;;;;0.10;0.10;;;;;;;;;;5015894;28;20041;-92
2023/11/24 13:51:42;;;;;;;0.10;0.10;;;;;;;;;;5016215;28;20083;-90
2023/11/24 13:54:11;;;;;;;0.10;0.10;;;;;;;;;;5015007;28;20042;-92
2023/11/24 13:56:48;;;;;;;0.10;0.10;;;;;;;;;;4999444;28;20044;-90
2023/11/24 13:59:14;;;;;;;0.10;0.10;;;;;;;;;;5000024;28;20068;-91
2023/11/24 14:01:41;;;;;;;0.65;0.65;;;;;;;;;;5015380;28;20507;-92
2023/11/24 14:04:10;;;;;;;0.20;0.20;;;;;;;;;;4999024;28;20037;-90
2023/11/24 14:06:46;;;;;;;0.20;0.20;;;;;;;;;;5015670;28;20373;-90
2023/11/24 14:09:19;;;;;;;0.70;0.40;;;;;;;;;;5015398;28;20130;-90
2023/11/24 14:11:45;;;;;;;;;;;;;;;;;;5016012;28;20042;-92
2023/11/24 14:14:11;;;;;;;0.30;0.30;;;;;;;;;;5015608;28;19924;-94
2023/11/24 14:16:37;;;;;;;0.13;0.13;;;;;;;;;;5015399;28;20059;-93
2023/11/24 14:19:05;;;;;;;0.10;0.10;;;;;;;;;;5015937;28;20132;-90
2023/11/24 14:21:31;;;;;;;0.10;0.10;;;;;;;;;;4998947;28;20038;-92
2023/11/24 14:24:00;;;;;;;0.15;0.15;;;;;;;;;;5014995;28;20041;-90
2023/11/24 14:26:27;;;;;;;0.10;0.10;;;;;;;;;;5014545;28;20049;-90
2023/11/24 14:28:53;;;;;;;0.10;0.10;;;;;;;;;;4998423;28;20042;-89
2023/11/24 14:31:19;;;;;;;0.10;0.10;;;;;;;;;;5014860;28;20091;-90
2023/11/24 14:33:45;;;;;;;0.10;0.10;;;;;;;;;;4998336;28;20047;-90
2023/11/24 14:36:11;;;;;;;0.10;0.10;;;;;;;;;;5014968;28;20045;-90
2023/11/24 14:38:39;;;;;;;0.10;0.10;;;;;;;;;;4998460;28;20049;-89
2023/11/24 14:41:07;;;;;;;0.52;0.52;;;;;;;;;;4998357;28;20041;-90
2023/11/24 14:43:40;;;;;;;0.20;0.20;;;;;;;;;;5016930;28;20131;-89